createdAt,value
2018-07-28T00:03:40.334Z,100072.00
2018-07-28T00:08:44.495Z,100076.00
2018-07-28T00:13:48.581Z,100071.00
2018-07-28T00:18:52.681Z,100069.00
2018-07-28T00:23:56.536Z,100063.00
2018-07-28T00:29:00.401Z,100057.00
2018-07-28T00:34:04.510Z,100052.00
2018-07-28T00:39:12.732Z,100050.00
2018-07-28T00:44:16.809Z,100049.00
2018-07-28T00:49:20.661Z,100044.00
2018-07-28T00:54:24.496Z,100034.00
2018-07-28T00:59:28.401Z,100037.00
2018-07-28T01:04:32.228Z,100030.00
2018-07-28T01:09:36.089Z,100031.00
2018-07-28T01:14:39.905Z,100026.00
2018-07-28T01:19:44.045Z,100031.00
2018-07-28T01:24:48.169Z,100028.00
2018-07-28T01:29:52.310Z,100021.00
2018-07-28T01:34:56.393Z,100023.00
2018-07-28T01:40:00.477Z,100018.00
2018-07-28T01:45:05.092Z,100013.00
2018-07-28T01:50:09.847Z,100006.00
2018-07-28T01:55:13.928Z,99999.00
2018-07-28T02:00:17.755Z,99989.00
2018-07-28T02:05:21.585Z,99983.00
2018-07-28T02:10:25.662Z,99985.00
2018-07-28T02:15:29.776Z,99983.00
2018-07-28T02:20:33.858Z,99980.00
2018-07-28T02:25:37.949Z,99988.00
2018-07-28T02:30:42.020Z,100008.00
2018-07-28T02:35:46.155Z,100011.00
2018-07-28T02:40:50.331Z,100012.00
2018-07-28T02:45:54.395Z,100006.00
2018-07-28T02:50:58.257Z,100008.00
2018-07-28T02:56:02.461Z,99998.00
2018-07-28T03:01:07.075Z,99992.00
2018-07-28T03:06:11.141Z,99998.00
2018-07-28T03:11:15.008Z,100000.00
2018-07-28T03:16:19.173Z,100017.00
2018-07-28T03:21:23.260Z,100076.00
2018-07-28T03:26:27.358Z,100054.00
2018-07-28T03:31:31.461Z,100051.00
2018-07-28T03:36:35.545Z,100035.00
2018-07-28T03:41:39.716Z,100040.00
2018-07-28T03:46:43.858Z,100048.00
2018-07-28T03:51:47.684Z,100032.00
2018-07-28T03:56:51.748Z,100032.00
2018-07-28T04:01:55.811Z,100038.00
2018-07-28T04:06:59.643Z,100038.00
2018-07-28T04:12:03.755Z,100041.00
2018-07-28T04:17:07.860Z,100034.00
2018-07-28T04:22:11.682Z,100030.00
2018-07-28T04:27:15.753Z,100033.00
2018-07-28T04:32:19.870Z,100016.00
2018-07-28T04:37:23.923Z,100008.00
2018-07-28T04:42:28.047Z,99988.00
2018-07-28T04:47:31.864Z,99992.00
2018-07-28T04:52:35.901Z,99974.00
2018-07-28T04:57:39.722Z,99972.00
2018-07-28T05:02:43.800Z,99959.00
2018-07-28T05:07:47.851Z,99958.00
2018-07-28T05:12:51.918Z,99949.00
2018-07-28T05:17:55.965Z,99942.00
2018-07-28T05:23:00.043Z,99971.00
2018-07-28T05:28:04.094Z,99990.00
2018-07-28T05:33:08.143Z,99992.00
2018-07-28T05:38:12.194Z,99984.00
2018-07-28T05:43:16.818Z,99995.00
2018-07-28T05:48:20.869Z,99977.00
2018-07-28T05:53:24.940Z,100011.00
2018-07-28T05:58:29.245Z,99994.00
2018-07-28T06:03:33.306Z,99996.00
2018-07-28T06:08:37.129Z,100007.00
2018-07-28T06:13:41.222Z,100025.00
2018-07-28T06:18:45.093Z,100059.00
2018-07-28T06:23:48.899Z,100052.00
2018-07-28T06:28:53.495Z,100074.00
2018-07-28T06:33:57.567Z,100081.00
2018-07-28T06:39:01.631Z,100077.00
2018-07-28T06:44:05.748Z,100076.00
2018-07-28T06:49:10.462Z,100071.00
2018-07-28T06:54:14.697Z,100068.00
2018-07-28T06:59:18.821Z,100083.00
2018-07-28T07:04:22.922Z,100091.00
2018-07-28T07:09:27.000Z,100088.00
2018-07-28T07:14:31.111Z,100090.00
2018-07-28T07:19:35.168Z,100114.00
2018-07-28T07:24:39.008Z,100120.00
2018-07-28T07:29:43.148Z,100138.00
2018-07-28T07:34:47.306Z,100143.00
2018-07-28T07:39:51.381Z,100137.00
2018-07-28T07:44:55.450Z,100124.00
2018-07-28T07:49:59.272Z,100116.00
2018-07-28T07:55:03.348Z,100108.00
2018-07-28T08:00:08.284Z,100115.00
2018-07-28T08:05:12.321Z,100106.00
2018-07-28T08:10:16.391Z,100111.00
2018-07-28T08:15:20.449Z,100117.00
2018-07-28T08:20:24.337Z,100148.00
2018-07-28T08:25:28.563Z,100160.00
2018-07-28T08:30:32.603Z,100153.00
2018-07-28T08:35:36.411Z,100147.00
2018-07-28T08:40:40.457Z,100138.00
2018-07-28T08:45:44.501Z,100143.00
2018-07-28T08:50:48.554Z,100151.00
2018-07-28T08:55:52.659Z,100160.00
2018-07-28T09:01:01.953Z,100170.00
2018-07-28T09:06:06.275Z,100185.00
2018-07-28T09:11:10.127Z,100191.00
2018-07-28T09:16:14.190Z,100171.00
2018-07-28T09:21:18.254Z,100166.00
2018-07-28T09:26:22.344Z,100187.00
2018-07-28T09:31:26.382Z,100180.00
2018-07-28T09:36:30.432Z,100179.00
2018-07-28T09:41:34.578Z,100165.00
2018-07-28T09:46:38.669Z,100179.00
2018-07-28T09:51:42.730Z,100179.00
2018-07-28T09:56:53.266Z,100164.00
2018-07-28T10:01:57.322Z,100157.00
2018-07-28T10:07:01.398Z,100161.00
2018-07-28T10:12:05.473Z,100161.00
2018-07-28T10:17:09.540Z,100156.00
2018-07-28T10:22:13.581Z,100163.00
2018-07-28T10:27:17.399Z,100162.00
2018-07-28T10:32:21.333Z,100157.00
2018-07-28T10:37:25.470Z,100148.00
2018-07-28T10:42:29.528Z,100136.00
2018-07-28T10:47:33.632Z,100145.00
2018-07-28T10:52:37.445Z,100141.00
2018-07-28T10:57:43.335Z,100142.00
2018-07-28T11:02:47.493Z,100140.00
2018-07-28T11:07:51.543Z,100136.00
2018-07-28T11:12:55.620Z,100121.00
2018-07-28T11:18:01.616Z,100119.00
2018-07-28T11:23:05.424Z,100119.00
2018-07-28T11:28:09.238Z,100128.00
2018-07-28T11:33:30.411Z,100135.00
2018-07-28T11:38:45.702Z,100129.00
2018-07-28T11:44:00.754Z,100140.00
2018-07-28T11:49:04.626Z,100145.00
2018-07-28T11:54:08.705Z,100125.00
2018-07-28T11:59:12.771Z,100132.00
2018-07-28T12:04:16.819Z,100150.00
2018-07-28T12:09:20.902Z,100147.00
2018-07-28T12:14:24.717Z,100138.00
2018-07-28T12:19:29.018Z,100137.00
2018-07-28T12:24:33.266Z,100148.00
2018-07-28T12:29:37.333Z,100154.00
2018-07-28T12:34:41.196Z,100154.00
2018-07-28T12:39:45.242Z,100140.00
2018-07-28T12:44:49.502Z,100160.00
2018-07-28T12:49:53.545Z,100162.00
2018-07-28T12:54:59.486Z,100173.00
2018-07-28T13:00:03.295Z,100184.00
2018-07-28T13:05:08.459Z,100206.00
2018-07-28T13:10:12.552Z,100226.00
2018-07-28T13:15:16.574Z,100207.00
2018-07-28T13:20:20.740Z,100203.00
2018-07-28T13:25:24.552Z,100235.00
2018-07-28T13:30:28.606Z,100212.00
2018-07-28T13:35:32.694Z,100191.00
2018-07-28T13:40:36.501Z,100189.00
2018-07-28T13:45:40.571Z,100180.00
2018-07-28T13:50:44.393Z,100186.00
2018-07-28T13:55:48.479Z,100181.00
2018-07-28T14:00:52.293Z,100195.00
2018-07-28T14:05:56.403Z,100201.00
2018-07-28T14:11:00.490Z,100216.00
2018-07-28T14:16:04.632Z,100232.00
2018-07-28T14:21:08.690Z,100199.00
2018-07-28T14:26:12.770Z,100200.00
2018-07-28T14:31:16.829Z,100198.00
2018-07-28T14:36:20.885Z,100189.00
2018-07-28T14:41:24.706Z,100192.00
2018-07-28T14:46:28.779Z,100198.00
2018-07-28T14:51:32.831Z,100209.00
2018-07-28T14:56:37.038Z,100221.00
2018-07-28T15:01:41.105Z,100253.00
2018-07-28T15:06:44.930Z,100245.00
2018-07-28T15:11:48.757Z,100228.00
2018-07-28T15:16:52.595Z,100233.00
2018-07-28T15:21:56.635Z,100237.00
2018-07-28T15:27:00.699Z,100236.00
2018-07-28T15:32:04.753Z,100231.00
2018-07-28T15:37:08.868Z,100239.00
2018-07-28T15:42:12.768Z,100245.00
2018-07-28T15:47:16.622Z,100242.00
2018-07-28T15:52:20.680Z,100246.00
2018-07-28T15:57:24.510Z,100257.00
2018-07-28T16:02:28.333Z,100247.00
2018-07-28T16:07:32.149Z,100250.00
2018-07-28T16:12:36.081Z,100247.00
2018-07-28T16:17:39.893Z,100244.00
2018-07-28T16:22:43.947Z,100233.00
2018-07-28T16:27:48.085Z,100237.00
2018-07-28T16:32:51.886Z,100224.00
2018-07-28T16:37:56.305Z,100239.00
2018-07-28T16:43:00.151Z,100243.00
2018-07-28T16:48:03.997Z,100246.00
2018-07-28T16:53:08.098Z,100252.00
2018-07-28T16:58:11.898Z,100260.00
2018-07-28T17:03:15.942Z,100275.00
2018-07-28T17:08:20.002Z,100284.00
2018-07-28T17:13:24.125Z,100288.00
2018-07-28T17:18:28.209Z,100299.00
2018-07-28T17:23:32.270Z,100305.00
2018-07-28T17:28:36.376Z,100312.00
2018-07-28T17:33:40.555Z,100323.00
2018-07-28T17:38:44.411Z,100333.00
2018-07-28T17:43:48.457Z,100340.00
2018-07-28T17:48:52.533Z,100355.00
2018-07-28T17:53:56.623Z,100365.00
2018-07-28T17:59:00.683Z,100374.00
2018-07-28T18:04:04.762Z,100383.00
2018-07-28T18:09:10.264Z,100397.00
2018-07-28T18:14:14.351Z,100406.00
2018-07-28T18:19:18.165Z,100407.00
2018-07-28T18:24:22.214Z,100415.00
2018-07-28T18:29:26.299Z,100427.00
2018-07-28T18:34:31.247Z,100429.00
2018-07-28T18:39:35.062Z,100432.00
2018-07-28T18:44:39.175Z,100435.00
2018-07-28T18:49:43.213Z,100445.00
2018-07-28T18:54:47.018Z,100454.00
2018-07-28T18:59:51.082Z,100456.00
2018-07-28T19:04:55.607Z,100463.00
2018-07-28T19:09:59.651Z,100469.00
2018-07-28T19:15:03.706Z,100479.00
2018-07-28T19:20:07.862Z,100480.00
2018-07-28T19:25:11.922Z,100499.00
2018-07-28T19:30:15.741Z,100520.00
2018-07-28T19:35:19.807Z,100534.00
2018-07-28T19:40:23.850Z,100542.00
2018-07-28T19:45:27.935Z,100549.00
2018-07-28T19:50:32.099Z,100556.00
2018-07-28T19:55:36.150Z,100562.00
2018-07-28T20:00:40.206Z,100569.00
2018-07-28T20:05:44.267Z,100574.00
2018-07-28T20:10:48.329Z,100575.00
2018-07-28T20:15:52.409Z,100583.00
2018-07-28T20:20:56.500Z,100580.00
2018-07-28T20:26:00.642Z,100587.00
2018-07-28T20:31:04.774Z,100601.00
2018-07-28T20:36:08.898Z,100609.00
2018-07-28T20:41:13.568Z,100613.00
2018-07-28T20:46:17.657Z,100613.00
2018-07-28T20:51:21.717Z,100613.00
2018-07-28T20:56:25.778Z,100612.00
2018-07-28T21:01:29.781Z,100625.00
2018-07-28T21:06:33.838Z,100629.00
2018-07-28T21:11:37.885Z,100619.00
2018-07-28T21:16:41.730Z,100631.00
2018-07-28T21:21:45.801Z,100637.00
2018-07-28T21:26:49.825Z,100651.00
2018-07-28T21:31:53.713Z,100653.00
2018-07-28T21:36:57.580Z,100664.00
2018-07-28T21:42:01.385Z,100672.00
2018-07-28T21:47:05.341Z,100675.00
2018-07-28T21:52:09.166Z,100674.00
2018-07-28T21:57:12.961Z,100679.00
2018-07-28T22:02:16.785Z,100689.00
2018-07-28T22:07:20.882Z,100693.00
2018-07-28T22:12:25.031Z,100696.00
2018-07-28T22:17:29.173Z,100707.00
2018-07-28T22:22:33.234Z,100708.00
2018-07-28T22:27:37.277Z,100712.00
2018-07-28T22:32:41.127Z,100719.00
2018-07-28T22:37:45.219Z,100720.00
2018-07-28T22:42:50.405Z,100727.00
2018-07-28T22:47:54.464Z,100733.00
2018-07-28T22:52:58.559Z,100736.00
2018-07-28T22:58:02.377Z,100726.00
2018-07-28T23:03:06.432Z,100718.00
2018-07-28T23:08:10.514Z,100709.00
2018-07-28T23:13:14.562Z,100715.00
2018-07-28T23:18:18.670Z,100708.00
2018-07-28T23:23:22.745Z,100712.00
2018-07-28T23:28:26.614Z,100708.00
2018-07-28T23:33:30.412Z,100720.00
2018-07-28T23:38:34.491Z,100731.00
2018-07-28T23:43:38.303Z,100730.00
2018-07-28T23:48:42.414Z,100739.00
2018-07-28T23:53:46.463Z,100738.00
2018-07-28T23:58:50.514Z,100735.00
